createdAt,value
2022-09-21T00:03:03.353Z,9.81
2022-09-21T00:08:08.609Z,9.79
2022-09-21T00:13:12.740Z,9.78
2022-09-21T00:18:15.844Z,9.79
2022-09-21T00:23:20.384Z,9.79
2022-09-21T00:28:23.591Z,9.77
2022-09-21T00:33:26.905Z,9.80
2022-09-21T00:38:30.520Z,9.85
2022-09-21T00:43:50.224Z,9.86
2022-09-21T00:48:54.243Z,9.87
2022-09-21T00:54:03.289Z,9.92
2022-09-21T00:59:07.522Z,9.98
2022-09-21T01:04:12.164Z,10.04
2022-09-21T01:09:16.394Z,10.09
2022-09-21T01:14:40.288Z,10.15
2022-09-21T01:20:13.501Z,10.23
2022-09-21T01:25:55.722Z,10.28
2022-09-21T01:31:06.305Z,10.31
2022-09-21T01:36:15.145Z,10.35
2022-09-21T01:41:23.780Z,10.36
2022-09-21T01:46:31.203Z,10.39
2022-09-21T01:51:36.510Z,10.39
2022-09-21T01:56:46.753Z,10.40
2022-09-21T02:01:55.338Z,10.41
2022-09-21T02:06:59.380Z,10.40
2022-09-21T02:12:02.898Z,10.40
2022-09-21T02:17:32.522Z,10.38
2022-09-21T02:22:49.692Z,10.36
2022-09-21T02:28:21.027Z,10.32
2022-09-21T02:33:34.988Z,10.26
2022-09-21T02:38:55.300Z,10.17
2022-09-21T02:44:33.973Z,10.08
2022-09-21T02:49:52.024Z,9.97
2022-09-21T02:54:56.433Z,9.90
2022-09-21T02:59:59.740Z,9.81
2022-09-21T03:05:03.152Z,9.76
2022-09-21T03:10:08.540Z,9.70
2022-09-21T03:15:11.824Z,9.63
2022-09-21T03:20:15.747Z,9.57
2022-09-21T03:25:18.955Z,9.51
2022-09-21T03:30:26.669Z,9.48
2022-09-21T03:35:30.389Z,9.48
2022-09-21T03:40:34.033Z,9.49
2022-09-21T03:45:38.348Z,9.49
2022-09-21T03:50:41.448Z,9.49
2022-09-21T03:55:44.657Z,9.50
2022-09-21T04:00:47.865Z,9.51
2022-09-21T04:05:51.179Z,9.52
2022-09-21T04:10:55.819Z,9.50
2022-09-21T04:15:59.092Z,9.47
2022-09-21T04:21:02.337Z,9.45
2022-09-21T04:26:06.468Z,9.40
2022-09-21T04:31:09.727Z,9.36
2022-09-21T04:36:12.986Z,9.35
2022-09-21T04:41:17.627Z,9.32
2022-09-21T04:46:21.694Z,9.32
2022-09-21T04:51:24.964Z,9.34
2022-09-21T04:56:28.392Z,9.36
2022-09-21T05:01:31.819Z,9.41
2022-09-21T05:06:35.205Z,9.49
2022-09-21T05:11:39.334Z,9.61
2022-09-21T05:16:42.746Z,9.77
2022-09-21T05:21:46.779Z,9.92
2022-09-21T05:26:50.085Z,10.04
2022-09-21T05:32:18.294Z,10.19
2022-09-21T05:37:40.194Z,10.32
2022-09-21T05:42:43.865Z,10.45
2022-09-21T05:47:59.547Z,10.58
2022-09-21T05:53:34.601Z,10.63
2022-09-21T05:58:57.393Z,10.66
2022-09-21T06:04:02.767Z,10.76
2022-09-21T06:09:06.246Z,10.95
2022-09-21T06:14:09.553Z,11.25
2022-09-21T06:19:14.091Z,11.56
2022-09-21T06:24:17.300Z,11.78
2022-09-21T06:29:23.914Z,12.03
2022-09-21T06:34:27.200Z,12.25
2022-09-21T06:39:30.734Z,12.45
2022-09-21T06:44:33.924Z,12.61
2022-09-21T06:49:41.751Z,12.70
2022-09-21T06:54:45.768Z,12.85
2022-09-21T06:59:49.651Z,12.89
2022-09-21T07:04:52.900Z,12.93
2022-09-21T07:10:15.829Z,13.06
2022-09-21T07:15:20.824Z,13.20
2022-09-21T07:20:24.235Z,13.28
2022-09-21T07:25:27.441Z,13.34
2022-09-21T07:30:30.752Z,13.41
2022-09-21T07:35:34.473Z,13.40
2022-09-21T07:40:37.940Z,13.62
2022-09-21T07:45:41.323Z,13.91
2022-09-21T07:50:44.720Z,14.11
2022-09-21T07:55:47.920Z,14.03
2022-09-21T08:00:51.569Z,13.80
2022-09-21T08:05:54.748Z,13.75
2022-09-21T08:11:06.252Z,13.65
2022-09-21T08:16:10.477Z,13.66
2022-09-21T08:21:14.613Z,13.90
2022-09-21T08:26:20.279Z,14.30
2022-09-21T08:31:24.677Z,14.57
2022-09-21T08:36:28.232Z,14.67
2022-09-21T08:41:43.626Z,14.60
2022-09-21T08:46:53.020Z,14.87
2022-09-21T08:52:00.999Z,14.96
2022-09-21T08:57:06.137Z,14.64
2022-09-21T09:02:20.248Z,14.42
2022-09-21T09:07:44.312Z,14.17
2022-09-21T09:13:03.702Z,13.74
2022-09-21T09:18:43.699Z,13.43
2022-09-21T09:24:05.314Z,13.48
2022-09-21T09:29:24.037Z,13.58
2022-09-21T09:34:35.794Z,13.69
2022-09-21T09:39:41.583Z,13.89
2022-09-21T09:45:08.937Z,14.20
2022-09-21T09:50:19.879Z,14.66
2022-09-21T09:55:30.561Z,14.81
2022-09-21T10:00:34.125Z,14.82
2022-09-21T10:05:41.837Z,14.93
2022-09-21T10:10:45.050Z,15.04
2022-09-21T10:15:56.204Z,15.05
2022-09-21T10:21:05.699Z,15.23
2022-09-21T10:26:11.261Z,15.78
2022-09-21T10:31:22.909Z,16.13
2022-09-21T10:36:31.092Z,15.79
2022-09-21T10:41:34.303Z,15.20
2022-09-21T10:46:38.030Z,15.01
2022-09-21T10:51:41.227Z,14.88
2022-09-21T10:56:54.048Z,14.94
2022-09-21T11:01:59.992Z,15.13
2022-09-21T11:07:22.700Z,15.19
2022-09-21T11:12:56.322Z,15.21
2022-09-21T11:18:33.835Z,15.32
2022-09-21T11:23:37.246Z,15.86
2022-09-21T11:28:52.641Z,16.58
2022-09-21T11:34:20.324Z,16.74
2022-09-21T11:40:07.907Z,16.04
2022-09-21T11:45:46.096Z,14.97
2022-09-21T11:50:54.429Z,14.38
2022-09-21T11:56:19.246Z,14.05
2022-09-21T12:01:45.799Z,13.77
2022-09-21T12:07:01.100Z,13.81
2022-09-21T12:12:23.145Z,14.04
2022-09-21T12:17:58.809Z,14.31
2022-09-21T12:23:11.134Z,14.99
2022-09-21T12:28:41.993Z,15.76
2022-09-21T12:34:01.786Z,16.38
2022-09-21T12:39:36.867Z,16.36
2022-09-21T12:44:53.261Z,14.81
2022-09-21T12:50:03.843Z,13.67
2022-09-21T12:55:34.598Z,13.06
2022-09-21T13:00:54.189Z,12.90
2022-09-21T13:06:15.622Z,12.97
2022-09-21T13:11:22.540Z,12.79
2022-09-21T13:16:38.767Z,12.86
2022-09-21T13:21:42.759Z,13.17
2022-09-21T13:26:57.038Z,13.28
2022-09-21T13:32:12.368Z,13.48
2022-09-21T13:37:19.012Z,13.75
2022-09-21T13:42:35.017Z,13.84
2022-09-21T13:47:41.023Z,13.72
2022-09-21T13:52:49.130Z,13.93
2022-09-21T13:57:55.993Z,14.21
2022-09-21T14:03:04.559Z,14.73
2022-09-21T14:08:17.091Z,14.87
2022-09-21T14:13:29.085Z,14.42
2022-09-21T14:18:38.223Z,13.85
2022-09-21T14:24:27.334Z,13.68
2022-09-21T14:29:44.670Z,14.06
2022-09-21T14:34:50.793Z,14.27
2022-09-21T14:39:55.172Z,15.54
2022-09-21T14:45:31.244Z,15.53
2022-09-21T14:50:52.371Z,15.47
2022-09-21T14:56:10.634Z,15.58
2022-09-21T15:01:36.269Z,17.95
2022-09-21T15:07:18.418Z,17.65
2022-09-21T15:12:45.354Z,15.45
2022-09-21T15:17:59.871Z,14.52
2022-09-21T15:23:19.179Z,18.77
2022-09-21T15:28:23.141Z,21.93
2022-09-21T15:33:27.473Z,23.34
2022-09-21T15:38:35.908Z,20.93
2022-09-21T15:43:40.960Z,18.36
2022-09-21T15:48:44.778Z,16.71
2022-09-21T15:53:52.801Z,15.70
2022-09-21T15:59:09.423Z,14.97
2022-09-21T16:04:22.299Z,14.40
2022-09-21T16:09:29.768Z,13.97
2022-09-21T16:14:51.922Z,13.76
2022-09-21T16:19:55.129Z,13.88
2022-09-21T16:25:00.676Z,13.66
2022-09-21T16:30:04.719Z,13.28
2022-09-21T16:35:40.490Z,12.91
2022-09-21T16:40:43.869Z,12.63
2022-09-21T16:45:47.623Z,12.45
2022-09-21T16:50:54.111Z,12.30
2022-09-21T16:55:57.625Z,12.15
2022-09-21T17:01:01.202Z,12.00
2022-09-21T17:06:06.109Z,11.86
2022-09-21T17:11:09.402Z,11.73
2022-09-21T17:16:13.559Z,11.62
2022-09-21T17:21:17.456Z,11.49
2022-09-21T17:26:21.583Z,11.35
2022-09-21T17:31:25.539Z,11.23
2022-09-21T17:36:28.721Z,11.16
2022-09-21T17:41:40.528Z,11.07
2022-09-21T17:46:59.198Z,10.98
2022-09-21T17:52:21.865Z,10.91
2022-09-21T17:57:50.056Z,10.87
2022-09-21T18:02:56.606Z,10.81
2022-09-21T18:08:00.501Z,10.76
2022-09-21T18:13:32.069Z,10.70
2022-09-21T18:18:47.045Z,10.68
2022-09-21T18:24:05.382Z,10.72
2022-09-21T18:29:41.851Z,10.76
2022-09-21T18:35:00.854Z,10.76
2022-09-21T18:40:28.564Z,10.76
2022-09-21T18:45:57.503Z,10.78
2022-09-21T18:51:12.126Z,10.80
2022-09-21T18:56:16.153Z,10.83
2022-09-21T19:01:22.327Z,10.78
2022-09-21T19:06:26.669Z,10.67
2022-09-21T19:11:37.348Z,10.55
2022-09-21T19:16:48.497Z,10.41
2022-09-21T19:22:03.019Z,10.34
2022-09-21T19:27:43.090Z,10.29
2022-09-21T19:32:46.401Z,10.23
2022-09-21T19:37:56.571Z,10.18
2022-09-21T19:42:59.686Z,10.15
2022-09-21T19:48:09.162Z,10.11
2022-09-21T19:53:31.901Z,10.05
2022-09-21T19:58:54.051Z,9.98
2022-09-21T20:03:57.776Z,9.92
2022-09-21T20:09:15.215Z,9.86
2022-09-21T20:14:42.795Z,9.74
2022-09-21T20:20:20.413Z,9.64
2022-09-21T20:25:48.092Z,9.53
2022-09-21T20:30:51.491Z,9.43
2022-09-21T20:35:56.162Z,9.36
2022-09-21T20:40:59.661Z,9.30
2022-09-21T20:46:03.888Z,9.21
2022-09-21T20:51:07.311Z,9.13
2022-09-21T20:56:12.257Z,9.07
2022-09-21T21:01:15.517Z,9.04
2022-09-21T21:06:19.622Z,9.02
2022-09-21T21:11:23.419Z,8.99
2022-09-21T21:16:26.768Z,8.98
2022-09-21T21:21:30.345Z,8.96
2022-09-21T21:26:57.434Z,8.95
2022-09-21T21:31:56.813Z,8.97
2022-09-21T21:37:00.874Z,8.98
2022-09-21T21:42:04.898Z,9.03
2022-09-21T21:47:27.750Z,9.07
2022-09-21T21:52:31.686Z,9.13
2022-09-21T21:57:35.097Z,9.17
2022-09-21T22:02:38.378Z,9.20
2022-09-21T22:07:41.615Z,9.25
2022-09-21T22:12:45.340Z,9.28
2022-09-21T22:17:49.568Z,9.29
2022-09-21T22:22:52.674Z,9.30
2022-09-21T22:27:56.398Z,9.32
2022-09-21T22:32:59.605Z,9.31
2022-09-21T22:38:02.914Z,9.27
2022-09-21T22:43:06.224Z,9.25
2022-09-21T22:48:09.542Z,9.21
2022-09-21T22:53:12.847Z,9.18
2022-09-21T22:58:16.159Z,9.16
2022-09-21T23:03:19.467Z,9.17
2022-09-21T23:08:22.676Z,9.19
2022-09-21T23:13:26.805Z,9.19
2022-09-21T23:18:30.323Z,9.19
2022-09-21T23:23:34.354Z,9.18
2022-09-21T23:28:39.291Z,9.15
2022-09-21T23:33:51.690Z,9.10
2022-09-21T23:38:55.550Z,9.08
2022-09-21T23:43:59.675Z,9.06
2022-09-21T23:49:03.907Z,9.02
2022-09-21T23:54:07.935Z,8.97
2022-09-21T23:59:11.654Z,8.93
